sensor_id;sensor_type;location;lat;lon;timestamp;P1;durP1;ratioP1;P2;durP2;ratioP2
58366;SDS011;57745;42.524;12.052;2023-02-22T00:00:07;12.52;;;8.07;;
58366;SDS011;57745;42.524;12.052;2023-02-22T00:02:50;12.82;;;8.48;;
58366;SDS011;57745;42.524;12.052;2023-02-22T00:05:18;16.15;;;8.85;;
58366;SDS011;57745;42.524;12.052;2023-02-22T00:07:49;13.45;;;8.10;;
58366;SDS011;57745;42.524;12.052;2023-02-22T00:10:15;12.65;;;8.80;;
58366;SDS011;57745;42.524;12.052;2023-02-22T00:12:45;12.38;;;8.57;;
58366;SDS011;57745;42.524;12.052;2023-02-22T00:15:19;14.95;;;9.02;;
58366;SDS011;57745;42.524;12.052;2023-02-22T00:17:46;14.75;;;8.43;;
58366;SDS011;57745;42.524;12.052;2023-02-22T00:20:13;17.92;;;9.15;;
58366;SDS011;57745;42.524;12.052;2023-02-22T00:22:42;13.13;;;8.80;;
58366;SDS011;57745;42.524;12.052;2023-02-22T00:25:10;22.88;;;9.85;;
58366;SDS011;57745;42.524;12.052;2023-02-22T00:27:37;14.48;;;9.07;;
58366;SDS011;57745;42.524;12.052;2023-02-22T00:30:06;16.48;;;9.63;;
58366;SDS011;57745;42.524;12.052;2023-02-22T00:32:33;16.27;;;10.50;;
58366;SDS011;57745;42.524;12.052;2023-02-22T00:34:59;14.02;;;9.23;;
58366;SDS011;57745;42.524;12.052;2023-02-22T00:37:25;14.77;;;9.05;;
58366;SDS011;57745;42.524;12.052;2023-02-22T00:39:50;15.88;;;9.98;;
58366;SDS011;57745;42.524;12.052;2023-02-22T00:42:16;18.00;;;10.48;;
58366;SDS011;57745;42.524;12.052;2023-02-22T00:44:43;15.57;;;9.13;;
58366;SDS011;57745;42.524;12.052;2023-02-22T00:47:09;14.77;;;10.00;;
58366;SDS011;57745;42.524;12.052;2023-02-22T00:49:35;15.35;;;10.25;;
58366;SDS011;57745;42.524;12.052;2023-02-22T00:52:01;15.45;;;10.80;;
58366;SDS011;57745;42.524;12.052;2023-02-22T00:54:28;16.60;;;10.88;;
58366;SDS011;57745;42.524;12.052;2023-02-22T00:56:54;17.73;;;10.07;;
58366;SDS011;57745;42.524;12.052;2023-02-22T00:59:20;18.67;;;11.32;;
58366;SDS011;57745;42.524;12.052;2023-02-22T01:01:45;14.65;;;10.02;;
58366;SDS011;57745;42.524;12.052;2023-02-22T01:04:10;15.60;;;10.40;;
58366;SDS011;57745;42.524;12.052;2023-02-22T01:06:36;15.02;;;9.55;;
58366;SDS011;57745;42.524;12.052;2023-02-22T01:09:02;15.75;;;10.25;;
58366;SDS011;57745;42.524;12.052;2023-02-22T01:11:28;15.65;;;10.00;;
58366;SDS011;57745;42.524;12.052;2023-02-22T01:13:53;16.17;;;9.35;;
58366;SDS011;57745;42.524;12.052;2023-02-22T01:16:19;17.25;;;10.50;;
58366;SDS011;57745;42.524;12.052;2023-02-22T01:18:45;16.55;;;9.70;;
58366;SDS011;57745;42.524;12.052;2023-02-22T01:21:10;14.60;;;9.23;;
58366;SDS011;57745;42.524;12.052;2023-02-22T01:23:36;15.32;;;9.07;;
58366;SDS011;57745;42.524;12.052;2023-02-22T01:26:01;15.23;;;9.50;;
58366;SDS011;57745;42.524;12.052;2023-02-22T01:28:29;15.55;;;9.15;;
58366;SDS011;57745;42.524;12.052;2023-02-22T01:30:58;14.75;;;8.48;;
58366;SDS011;57745;42.524;12.052;2023-02-22T01:33:25;11.38;;;8.45;;
58366;SDS011;57745;42.524;12.052;2023-02-22T01:35:51;12.50;;;8.27;;
58366;SDS011;57745;42.524;12.052;2023-02-22T01:38:16;16.15;;;8.85;;
58366;SDS011;57745;42.524;12.052;2023-02-22T01:40:43;17.10;;;9.55;;
58366;SDS011;57745;42.524;12.052;2023-02-22T01:43:24;12.73;;;8.18;;
58366;SDS011;57745;42.524;12.052;2023-02-22T01:45:59;14.95;;;9.40;;
58366;SDS011;57745;42.524;12.052;2023-02-22T01:48:46;13.23;;;8.47;;
58366;SDS011;57745;42.524;12.052;2023-02-22T01:51:30;15.35;;;9.13;;
58366;SDS011;57745;42.524;12.052;2023-02-22T01:54:09;14.32;;;9.40;;
58366;SDS011;57745;42.524;12.052;2023-02-22T01:56:53;15.80;;;9.23;;
58366;SDS011;57745;42.524;12.052;2023-02-22T01:59:41;16.25;;;9.07;;
58366;SDS011;57745;42.524;12.052;2023-02-22T02:02:10;14.10;;;8.43;;
58366;SDS011;57745;42.524;12.052;2023-02-22T02:04:38;15.10;;;9.38;;
58366;SDS011;57745;42.524;12.052;2023-02-22T02:07:06;16.52;;;9.75;;
58366;SDS011;57745;42.524;12.052;2023-02-22T02:09:39;14.35;;;8.75;;
58366;SDS011;57745;42.524;12.052;2023-02-22T02:12:11;16.77;;;9.43;;
58366;SDS011;57745;42.524;12.052;2023-02-22T02:14:40;16.48;;;9.18;;
58366;SDS011;57745;42.524;12.052;2023-02-22T02:17:07;12.27;;;8.15;;
58366;SDS011;57745;42.524;12.052;2023-02-22T02:27:10;10.23;;;6.47;;
58366;SDS011;57745;42.524;12.052;2023-02-22T02:49:01;7.47;;;5.05;;
58366;SDS011;57745;42.524;12.052;2023-02-22T02:51:33;7.22;;;5.20;;
58366;SDS011;57745;42.524;12.052;2023-02-22T02:54:02;9.70;;;4.65;;
58366;SDS011;57745;42.524;12.052;2023-02-22T02:56:29;7.13;;;4.80;;
58366;SDS011;57745;42.524;12.052;2023-02-22T02:58:55;7.65;;;5.05;;
58366;SDS011;57745;42.524;12.052;2023-02-22T03:20:38;9.07;;;6.03;;
58366;SDS011;57745;42.524;12.052;2023-02-22T03:26:15;7.45;;;5.55;;
58366;SDS011;57745;42.524;12.052;2023-02-22T03:28:43;10.38;;;6.55;;
58366;SDS011;57745;42.524;12.052;2023-02-22T03:31:17;12.00;;;7.15;;
58366;SDS011;57745;42.524;12.052;2023-02-22T03:34:00;10.43;;;6.95;;
58366;SDS011;57745;42.524;12.052;2023-02-22T03:36:32;11.43;;;7.32;;
58366;SDS011;57745;42.524;12.052;2023-02-22T03:39:03;10.52;;;7.32;;
58366;SDS011;57745;42.524;12.052;2023-02-22T03:41:31;12.05;;;7.88;;
58366;SDS011;57745;42.524;12.052;2023-02-22T03:44:07;12.50;;;7.65;;
58366;SDS011;57745;42.524;12.052;2023-02-22T03:46:37;13.57;;;8.23;;
58366;SDS011;57745;42.524;12.052;2023-02-22T03:49:08;14.13;;;7.82;;
58366;SDS011;57745;42.524;12.052;2023-02-22T03:51:38;12.15;;;7.53;;
58366;SDS011;57745;42.524;12.052;2023-02-22T03:54:04;13.80;;;8.27;;
58366;SDS011;57745;42.524;12.052;2023-02-22T03:56:43;15.77;;;8.95;;
58366;SDS011;57745;42.524;12.052;2023-02-22T03:59:14;12.23;;;8.82;;
58366;SDS011;57745;42.524;12.052;2023-02-22T04:01:40;15.45;;;8.00;;
58366;SDS011;57745;42.524;12.052;2023-02-22T04:04:05;11.52;;;7.10;;
58366;SDS011;57745;42.524;12.052;2023-02-22T04:06:31;11.02;;;6.72;;
58366;SDS011;57745;42.524;12.052;2023-02-22T04:08:56;9.13;;;6.43;;
58366;SDS011;57745;42.524;12.052;2023-02-22T04:11:22;9.73;;;6.72;;
58366;SDS011;57745;42.524;12.052;2023-02-22T04:13:47;12.05;;;7.30;;
58366;SDS011;57745;42.524;12.052;2023-02-22T04:16:13;9.65;;;5.97;;
58366;SDS011;57745;42.524;12.052;2023-02-22T04:18:38;11.00;;;6.80;;
58366;SDS011;57745;42.524;12.052;2023-02-22T04:21:04;9.45;;;5.90;;
58366;SDS011;57745;42.524;12.052;2023-02-22T04:23:29;8.98;;;6.25;;
58366;SDS011;57745;42.524;12.052;2023-02-22T04:25:55;10.23;;;5.88;;
58366;SDS011;57745;42.524;12.052;2023-02-22T04:28:20;10.30;;;6.45;;
58366;SDS011;57745;42.524;12.052;2023-02-22T04:30:46;10.85;;;6.78;;
58366;SDS011;57745;42.524;12.052;2023-02-22T04:33:12;12.70;;;8.70;;
58366;SDS011;57745;42.524;12.052;2023-02-22T04:35:37;13.88;;;9.38;;
58366;SDS011;57745;42.524;12.052;2023-02-22T04:38:03;11.05;;;7.85;;
58366;SDS011;57745;42.524;12.052;2023-02-22T04:40:29;12.57;;;8.43;;
58366;SDS011;57745;42.524;12.052;2023-02-22T04:42:55;13.20;;;7.93;;
58366;SDS011;57745;42.524;12.052;2023-02-22T04:45:21;11.68;;;7.40;;
58366;SDS011;57745;42.524;12.052;2023-02-22T04:47:47;9.90;;;7.03;;
58366;SDS011;57745;42.524;12.052;2023-02-22T04:50:12;12.15;;;7.38;;
58366;SDS011;57745;42.524;12.052;2023-02-22T04:52:38;13.93;;;8.35;;
58366;SDS011;57745;42.524;12.052;2023-02-22T04:55:05;13.40;;;7.65;;
58366;SDS011;57745;42.524;12.052;2023-02-22T04:57:31;10.60;;;6.78;;
58366;SDS011;57745;42.524;12.052;2023-02-22T04:59:57;9.70;;;6.10;;
58366;SDS011;57745;42.524;12.052;2023-02-22T05:02:22;8.52;;;5.88;;
58366;SDS011;57745;42.524;12.052;2023-02-22T05:04:48;8.48;;;5.60;;
58366;SDS011;57745;42.524;12.052;2023-02-22T05:07:14;9.63;;;5.20;;
58366;SDS011;57745;42.524;12.052;2023-02-22T05:09:40;8.27;;;5.45;;
58366;SDS011;57745;42.524;12.052;2023-02-22T05:12:05;7.72;;;5.55;;
58366;SDS011;57745;42.524;12.052;2023-02-22T05:14:31;8.07;;;6.00;;
58366;SDS011;57745;42.524;12.052;2023-02-22T05:16:57;8.15;;;5.68;;
58366;SDS011;57745;42.524;12.052;2023-02-22T05:19:23;8.75;;;5.72;;
58366;SDS011;57745;42.524;12.052;2023-02-22T05:21:48;7.85;;;4.90;;
58366;SDS011;57745;42.524;12.052;2023-02-22T05:24:14;8.13;;;5.45;;
58366;SDS011;57745;42.524;12.052;2023-02-22T05:26:41;9.88;;;5.57;;
58366;SDS011;57745;42.524;12.052;2023-02-22T05:29:10;7.90;;;5.20;;
58366;SDS011;57745;42.524;12.052;2023-02-22T05:31:36;7.72;;;5.55;;
58366;SDS011;57745;42.524;12.052;2023-02-22T05:34:02;8.52;;;5.00;;
58366;SDS011;57745;42.524;12.052;2023-02-22T05:36:28;7.68;;;5.10;;
58366;SDS011;57745;42.524;12.052;2023-02-22T05:38:54;6.70;;;4.80;;
58366;SDS011;57745;42.524;12.052;2023-02-22T05:41:20;7.05;;;4.88;;
58366;SDS011;57745;42.524;12.052;2023-02-22T05:43:45;8.57;;;5.28;;
58366;SDS011;57745;42.524;12.052;2023-02-22T05:46:11;8.20;;;4.97;;
58366;SDS011;57745;42.524;12.052;2023-02-22T05:48:38;7.00;;;4.68;;
58366;SDS011;57745;42.524;12.052;2023-02-22T05:51:03;8.15;;;5.20;;
58366;SDS011;57745;42.524;12.052;2023-02-22T05:53:29;8.57;;;5.13;;
58366;SDS011;57745;42.524;12.052;2023-02-22T05:55:55;9.68;;;4.90;;
58366;SDS011;57745;42.524;12.052;2023-02-22T05:58:21;7.82;;;4.63;;
58366;SDS011;57745;42.524;12.052;2023-02-22T06:00:46;10.32;;;6.05;;
58366;SDS011;57745;42.524;12.052;2023-02-22T06:03:12;8.77;;;5.18;;
58366;SDS011;57745;42.524;12.052;2023-02-22T06:05:37;9.75;;;5.13;;
58366;SDS011;57745;42.524;12.052;2023-02-22T06:08:03;9.98;;;4.88;;
58366;SDS011;57745;42.524;12.052;2023-02-22T06:10:30;7.05;;;4.97;;
58366;SDS011;57745;42.524;12.052;2023-02-22T06:12:56;7.78;;;5.03;;
58366;SDS011;57745;42.524;12.052;2023-02-22T06:15:24;7.82;;;4.53;;
58366;SDS011;57745;42.524;12.052;2023-02-22T06:17:50;10.65;;;4.72;;
58366;SDS011;57745;42.524;12.052;2023-02-22T06:20:17;7.70;;;4.55;;
58366;SDS011;57745;42.524;12.052;2023-02-22T06:22:47;6.72;;;4.72;;
58366;SDS011;57745;42.524;12.052;2023-02-22T06:25:14;9.88;;;4.85;;
58366;SDS011;57745;42.524;12.052;2023-02-22T06:27:41;8.32;;;4.65;;
58366;SDS011;57745;42.524;12.052;2023-02-22T06:30:07;6.13;;;4.50;;
58366;SDS011;57745;42.524;12.052;2023-02-22T06:32:33;6.68;;;4.70;;
58366;SDS011;57745;42.524;12.052;2023-02-22T06:34:59;8.00;;;5.70;;
58366;SDS011;57745;42.524;12.052;2023-02-22T06:37:24;11.68;;;6.30;;
58366;SDS011;57745;42.524;12.052;2023-02-22T06:39:50;8.90;;;6.00;;
58366;SDS011;57745;42.524;12.052;2023-02-22T06:42:15;7.85;;;5.97;;
58366;SDS011;57745;42.524;12.052;2023-02-22T06:44:41;10.38;;;6.15;;
58366;SDS011;57745;42.524;12.052;2023-02-22T06:47:06;9.18;;;6.43;;
58366;SDS011;57745;42.524;12.052;2023-02-22T06:49:31;17.55;;;11.40;;
58366;SDS011;57745;42.524;12.052;2023-02-22T06:51:57;21.38;;;12.52;;
58366;SDS011;57745;42.524;12.052;2023-02-22T06:54:23;20.45;;;11.30;;
58366;SDS011;57745;42.524;12.052;2023-02-22T06:56:48;16.13;;;9.52;;
58366;SDS011;57745;42.524;12.052;2023-02-22T06:59:14;13.38;;;7.55;;
58366;SDS011;57745;42.524;12.052;2023-02-22T07:01:40;15.55;;;7.22;;
58366;SDS011;57745;42.524;12.052;2023-02-22T07:04:06;9.85;;;6.65;;
58366;SDS011;57745;42.524;12.052;2023-02-22T07:06:32;9.85;;;6.63;;
58366;SDS011;57745;42.524;12.052;2023-02-22T07:08:57;14.25;;;6.43;;
58366;SDS011;57745;42.524;12.052;2023-02-22T07:11:23;14.65;;;7.13;;
58366;SDS011;57745;42.524;12.052;2023-02-22T07:13:48;12.48;;;7.10;;
58366;SDS011;57745;42.524;12.052;2023-02-22T07:16:14;11.90;;;6.75;;
58366;SDS011;57745;42.524;12.052;2023-02-22T07:18:39;13.55;;;8.00;;
58366;SDS011;57745;42.524;12.052;2023-02-22T07:21:05;16.00;;;9.00;;
58366;SDS011;57745;42.524;12.052;2023-02-22T07:23:31;21.38;;;11.38;;
58366;SDS011;57745;42.524;12.052;2023-02-22T07:26:01;14.05;;;8.43;;
58366;SDS011;57745;42.524;12.052;2023-02-22T07:28:29;12.60;;;7.10;;
58366;SDS011;57745;42.524;12.052;2023-02-22T07:30:54;11.97;;;7.13;;
58366;SDS011;57745;42.524;12.052;2023-02-22T07:33:20;9.73;;;6.07;;
58366;SDS011;57745;42.524;12.052;2023-02-22T07:35:46;14.68;;;7.07;;
58366;SDS011;57745;42.524;12.052;2023-02-22T07:38:14;27.95;;;9.35;;
58366;SDS011;57745;42.524;12.052;2023-02-22T07:40:41;39.72;;;10.48;;
58366;SDS011;57745;42.524;12.052;2023-02-22T07:43:15;22.85;;;6.93;;
58366;SDS011;57745;42.524;12.052;2023-02-22T07:45:43;13.38;;;6.75;;
58366;SDS011;57745;42.524;12.052;2023-02-22T07:48:10;14.23;;;6.05;;
58366;SDS011;57745;42.524;12.052;2023-02-22T07:50:39;15.45;;;6.00;;
58366;SDS011;57745;42.524;12.052;2023-02-22T07:53:05;9.55;;;5.57;;
58366;SDS011;57745;42.524;12.052;2023-02-22T07:55:35;9.93;;;5.88;;
58366;SDS011;57745;42.524;12.052;2023-02-22T07:58:02;13.93;;;6.38;;
58366;SDS011;57745;42.524;12.052;2023-02-22T08:00:35;10.15;;;5.13;;
58366;SDS011;57745;42.524;12.052;2023-02-22T08:03:04;10.32;;;5.20;;
58366;SDS011;57745;42.524;12.052;2023-02-22T08:05:34;8.63;;;5.03;;
58366;SDS011;57745;42.524;12.052;2023-02-22T08:08:01;8.13;;;4.28;;
58366;SDS011;57745;42.524;12.052;2023-02-22T08:10:27;7.63;;;4.30;;
58366;SDS011;57745;42.524;12.052;2023-02-22T08:12:53;7.47;;;4.75;;
58366;SDS011;57745;42.524;12.052;2023-02-22T08:17:49;15.98;;;6.47;;
58366;SDS011;57745;42.524;12.052;2023-02-22T08:20:15;12.38;;;6.55;;
58366;SDS011;57745;42.524;12.052;2023-02-22T08:22:42;17.65;;;7.00;;
58366;SDS011;57745;42.524;12.052;2023-02-22T08:25:08;13.50;;;6.90;;
58366;SDS011;57745;42.524;12.052;2023-02-22T08:27:34;13.38;;;6.30;;
58366;SDS011;57745;42.524;12.052;2023-02-22T08:29:59;18.23;;;6.40;;
58366;SDS011;57745;42.524;12.052;2023-02-22T08:32:25;12.38;;;5.57;;
58366;SDS011;57745;42.524;12.052;2023-02-22T08:34:50;10.00;;;5.07;;
58366;SDS011;57745;42.524;12.052;2023-02-22T08:37:16;13.85;;;5.82;;
58366;SDS011;57745;42.524;12.052;2023-02-22T08:39:43;10.75;;;5.20;;
58366;SDS011;57745;42.524;12.052;2023-02-22T08:42:09;20.17;;;4.97;;
58366;SDS011;57745;42.524;12.052;2023-02-22T08:44:35;7.00;;;5.00;;
58366;SDS011;57745;42.524;12.052;2023-02-22T08:47:01;12.32;;;5.15;;
58366;SDS011;57745;42.524;12.052;2023-02-22T08:49:27;9.80;;;4.75;;
58366;SDS011;57745;42.524;12.052;2023-02-22T08:51:52;10.07;;;4.57;;
58366;SDS011;57745;42.524;12.052;2023-02-22T08:54:18;8.55;;;4.40;;
58366;SDS011;57745;42.524;12.052;2023-02-22T08:56:43;9.15;;;5.53;;
58366;SDS011;57745;42.524;12.052;2023-02-22T08:59:08;10.32;;;5.68;;
58366;SDS011;57745;42.524;12.052;2023-02-22T09:01:34;10.73;;;5.72;;
58366;SDS011;57745;42.524;12.052;2023-02-22T09:04:00;10.48;;;5.90;;
58366;SDS011;57745;42.524;12.052;2023-02-22T09:06:26;12.63;;;6.15;;
58366;SDS011;57745;42.524;12.052;2023-02-22T09:08:52;11.18;;;5.10;;
58366;SDS011;57745;42.524;12.052;2023-02-22T09:11:18;10.50;;;5.28;;
58366;SDS011;57745;42.524;12.052;2023-02-22T09:13:43;6.40;;;4.28;;
58366;SDS011;57745;42.524;12.052;2023-02-22T09:16:09;12.85;;;5.30;;
58366;SDS011;57745;42.524;12.052;2023-02-22T09:18:34;7.15;;;4.65;;
58366;SDS011;57745;42.524;12.052;2023-02-22T09:21:01;8.13;;;4.20;;
58366;SDS011;57745;42.524;12.052;2023-02-22T09:23:27;7.32;;;4.68;;
58366;SDS011;57745;42.524;12.052;2023-02-22T09:25:52;7.60;;;4.50;;
58366;SDS011;57745;42.524;12.052;2023-02-22T09:28:18;7.93;;;4.25;;
58366;SDS011;57745;42.524;12.052;2023-02-22T09:30:43;9.40;;;4.53;;
58366;SDS011;57745;42.524;12.052;2023-02-22T09:33:13;13.52;;;4.15;;
58366;SDS011;57745;42.524;12.052;2023-02-22T09:35:40;5.78;;;4.35;;
58366;SDS011;57745;42.524;12.052;2023-02-22T09:38:10;7.07;;;4.18;;
58366;SDS011;57745;42.524;12.052;2023-02-22T09:41:23;8.68;;;4.32;;
58366;SDS011;57745;42.524;12.052;2023-02-22T09:43:33;7.25;;;4.40;;
58366;SDS011;57745;42.524;12.052;2023-02-22T09:51:53;7.43;;;4.78;;
58366;SDS011;57745;42.524;12.052;2023-02-22T09:54:28;6.20;;;4.00;;
58366;SDS011;57745;42.524;12.052;2023-02-22T09:56:55;6.78;;;4.50;;
58366;SDS011;57745;42.524;12.052;2023-02-22T09:59:26;9.55;;;4.10;;
58366;SDS011;57745;42.524;12.052;2023-02-22T10:04:46;7.82;;;4.53;;
58366;SDS011;57745;42.524;12.052;2023-02-22T10:07:30;7.90;;;4.63;;
58366;SDS011;57745;42.524;12.052;2023-02-22T10:10:01;8.48;;;4.72;;
58366;SDS011;57745;42.524;12.052;2023-02-22T10:21:21;10.38;;;5.97;;
58366;SDS011;57745;42.524;12.052;2023-02-22T10:27:03;19.88;;;10.63;;
58366;SDS011;57745;42.524;12.052;2023-02-22T10:29:36;23.60;;;12.15;;
58366;SDS011;57745;42.524;12.052;2023-02-22T10:32:07;15.55;;;9.02;;
58366;SDS011;57745;42.524;12.052;2023-02-22T10:34:55;15.07;;;8.57;;
58366;SDS011;57745;42.524;12.052;2023-02-22T10:37:25;13.05;;;7.68;;
58366;SDS011;57745;42.524;12.052;2023-02-22T10:39:55;12.02;;;7.25;;
58366;SDS011;57745;42.524;12.052;2023-02-22T10:42:44;15.40;;;7.05;;
58366;SDS011;57745;42.524;12.052;2023-02-22T10:47:48;11.57;;;7.00;;
58366;SDS011;57745;42.524;12.052;2023-02-22T10:50:14;13.38;;;7.97;;
58366;SDS011;57745;42.524;12.052;2023-02-22T10:52:40;12.32;;;7.20;;
58366;SDS011;57745;42.524;12.052;2023-02-22T10:55:10;10.70;;;6.25;;
58366;SDS011;57745;42.524;12.052;2023-02-22T10:57:38;12.63;;;6.37;;
58366;SDS011;57745;42.524;12.052;2023-02-22T11:00:19;10.85;;;5.90;;
58366;SDS011;57745;42.524;12.052;2023-02-22T11:05:41;8.73;;;6.05;;
58366;SDS011;57745;42.524;12.052;2023-02-22T11:08:27;10.93;;;5.63;;
58366;SDS011;57745;42.524;12.052;2023-02-22T11:11:17;13.30;;;6.90;;
58366;SDS011;57745;42.524;12.052;2023-02-22T11:13:49;9.27;;;5.80;;
58366;SDS011;57745;42.524;12.052;2023-02-22T11:16:27;10.88;;;5.80;;
58366;SDS011;57745;42.524;12.052;2023-02-22T11:21:34;12.13;;;6.40;;
58366;SDS011;57745;42.524;12.052;2023-02-22T11:24:04;12.52;;;6.47;;
58366;SDS011;57745;42.524;12.052;2023-02-22T11:26:47;12.80;;;6.22;;
58366;SDS011;57745;42.524;12.052;2023-02-22T11:32:01;8.85;;;5.72;;
58366;SDS011;57745;42.524;12.052;2023-02-22T11:34:37;10.65;;;6.20;;
58366;SDS011;57745;42.524;12.052;2023-02-22T11:39:46;12.20;;;6.03;;
58366;SDS011;57745;42.524;12.052;2023-02-22T11:45:23;10.07;;;6.53;;
58366;SDS011;57745;42.524;12.052;2023-02-22T11:47:51;13.05;;;8.20;;
58366;SDS011;57745;42.524;12.052;2023-02-22T11:58:29;11.65;;;7.13;;
58366;SDS011;57745;42.524;12.052;2023-02-22T12:01:33;10.57;;;7.07;;
58366;SDS011;57745;42.524;12.052;2023-02-22T12:06:57;16.00;;;8.27;;
58366;SDS011;57745;42.524;12.052;2023-02-22T12:19:51;12.80;;;7.32;;
58366;SDS011;57745;42.524;12.052;2023-02-22T12:22:29;15.35;;;8.13;;
58366;SDS011;57745;42.524;12.052;2023-02-22T12:25:17;14.85;;;7.30;;
58366;SDS011;57745;42.524;12.052;2023-02-22T12:27:48;9.15;;;5.45;;
58366;SDS011;57745;42.524;12.052;2023-02-22T12:30:22;9.30;;;6.00;;
58366;SDS011;57745;42.524;12.052;2023-02-22T12:32:53;10.93;;;5.90;;
58366;SDS011;57745;42.524;12.052;2023-02-22T12:40:59;8.52;;;4.90;;
58366;SDS011;57745;42.524;12.052;2023-02-22T12:43:35;7.50;;;4.35;;
58366;SDS011;57745;42.524;12.052;2023-02-22T12:46:26;6.18;;;3.95;;
58366;SDS011;57745;42.524;12.052;2023-02-22T12:49:20;7.93;;;4.28;;
58366;SDS011;57745;42.524;12.052;2023-02-22T12:51:57;7.35;;;3.72;;
58366;SDS011;57745;42.524;12.052;2023-02-22T13:00:04;9.48;;;4.20;;
58366;SDS011;57745;42.524;12.052;2023-02-22T13:02:49;5.20;;;3.53;;
58366;SDS011;57745;42.524;12.052;2023-02-22T13:05:18;7.85;;;4.10;;
58366;SDS011;57745;42.524;12.052;2023-02-22T13:10:32;8.70;;;4.85;;
58366;SDS011;57745;42.524;12.052;2023-02-22T13:18:45;5.75;;;3.53;;
58366;SDS011;57745;42.524;12.052;2023-02-22T13:21:23;6.22;;;3.10;;
58366;SDS011;57745;42.524;12.052;2023-02-22T13:26:44;6.15;;;3.17;;
58366;SDS011;57745;42.524;12.052;2023-02-22T13:29:24;5.35;;;2.90;;
58366;SDS011;57745;42.524;12.052;2023-02-22T13:42:54;5.95;;;3.40;;
58366;SDS011;57745;42.524;12.052;2023-02-22T13:51:57;7.68;;;3.80;;
58366;SDS011;57745;42.524;12.052;2023-02-22T13:56:34;9.10;;;4.68;;
58366;SDS011;57745;42.524;12.052;2023-02-22T13:59:00;7.13;;;4.50;;
58366;SDS011;57745;42.524;12.052;2023-02-22T14:01:36;7.50;;;4.05;;
58366;SDS011;57745;42.524;12.052;2023-02-22T14:06:53;7.00;;;3.97;;
58366;SDS011;57745;42.524;12.052;2023-02-22T14:15:13;10.00;;;4.45;;
58366;SDS011;57745;42.524;12.052;2023-02-22T14:17:45;6.40;;;3.90;;
58366;SDS011;57745;42.524;12.052;2023-02-22T14:22:39;5.53;;;3.63;;
58366;SDS011;57745;42.524;12.052;2023-02-22T14:25:12;6.72;;;4.13;;
58366;SDS011;57745;42.524;12.052;2023-02-22T14:28:08;6.28;;;4.10;;
58366;SDS011;57745;42.524;12.052;2023-02-22T14:31:03;7.03;;;4.07;;
58366;SDS011;57745;42.524;12.052;2023-02-22T14:36:33;12.63;;;6.57;;
58366;SDS011;57745;42.524;12.052;2023-02-22T14:39:29;9.38;;;5.68;;
58366;SDS011;57745;42.524;12.052;2023-02-22T14:41:58;10.43;;;6.43;;
58366;SDS011;57745;42.524;12.052;2023-02-22T14:50:17;14.02;;;7.32;;
58366;SDS011;57745;42.524;12.052;2023-02-22T14:52:47;11.13;;;7.07;;
58366;SDS011;57745;42.524;12.052;2023-02-22T14:55:26;12.15;;;6.55;;
58366;SDS011;57745;42.524;12.052;2023-02-22T14:58:00;12.57;;;6.60;;
58366;SDS011;57745;42.524;12.052;2023-02-22T15:00:37;9.55;;;6.50;;
58366;SDS011;57745;42.524;12.052;2023-02-22T15:05:47;9.75;;;6.18;;
58366;SDS011;57745;42.524;12.052;2023-02-22T15:08:16;9.55;;;6.10;;
58366;SDS011;57745;42.524;12.052;2023-02-22T15:10:46;11.48;;;7.90;;
58366;SDS011;57745;42.524;12.052;2023-02-22T15:15:43;14.85;;;9.20;;
58366;SDS011;57745;42.524;12.052;2023-02-22T15:18:56;11.70;;;7.38;;
58366;SDS011;57745;42.524;12.052;2023-02-22T15:21:06;13.30;;;8.07;;
58366;SDS011;57745;42.524;12.052;2023-02-22T15:24:17;10.82;;;7.22;;
58366;SDS011;57745;42.524;12.052;2023-02-22T15:26:28;10.10;;;7.05;;
58366;SDS011;57745;42.524;12.052;2023-02-22T15:29:03;11.70;;;6.60;;
58366;SDS011;57745;42.524;12.052;2023-02-22T15:31:34;9.27;;;6.30;;
58366;SDS011;57745;42.524;12.052;2023-02-22T15:34:09;13.32;;;6.15;;
58366;SDS011;57745;42.524;12.052;2023-02-22T15:36:46;9.57;;;6.30;;
58366;SDS011;57745;42.524;12.052;2023-02-22T15:42:10;13.20;;;7.55;;
58366;SDS011;57745;42.524;12.052;2023-02-22T15:44:52;11.85;;;7.75;;
58366;SDS011;57745;42.524;12.052;2023-02-22T15:47:28;13.52;;;7.95;;
58366;SDS011;57745;42.524;12.052;2023-02-22T15:57:57;9.93;;;6.30;;
58366;SDS011;57745;42.524;12.052;2023-02-22T16:01:00;12.02;;;6.57;;
58366;SDS011;57745;42.524;12.052;2023-02-22T16:04:14;11.25;;;6.70;;
58366;SDS011;57745;42.524;12.052;2023-02-22T16:11:47;14.05;;;6.70;;
58366;SDS011;57745;42.524;12.052;2023-02-22T16:14:26;8.32;;;5.78;;
58366;SDS011;57745;42.524;12.052;2023-02-22T16:19:57;9.75;;;6.43;;
58366;SDS011;57745;42.524;12.052;2023-02-22T16:22:45;12.65;;;6.93;;
58366;SDS011;57745;42.524;12.052;2023-02-22T16:27:43;12.20;;;6.78;;
58366;SDS011;57745;42.524;12.052;2023-02-22T16:32:45;10.93;;;6.82;;
58366;SDS011;57745;42.524;12.052;2023-02-22T16:35:15;9.88;;;6.47;;
58366;SDS011;57745;42.524;12.052;2023-02-22T16:37:44;10.35;;;6.90;;
58366;SDS011;57745;42.524;12.052;2023-02-22T16:40:20;12.85;;;7.50;;
58366;SDS011;57745;42.524;12.052;2023-02-22T16:42:48;11.30;;;7.22;;
58366;SDS011;57745;42.524;12.052;2023-02-22T16:45:16;10.05;;;7.00;;
58366;SDS011;57745;42.524;12.052;2023-02-22T16:47:42;10.35;;;6.13;;
58366;SDS011;57745;42.524;12.052;2023-02-22T16:50:07;11.65;;;6.00;;
58366;SDS011;57745;42.524;12.052;2023-02-22T16:52:33;10.55;;;6.30;;
58366;SDS011;57745;42.524;12.052;2023-02-22T16:54:59;8.40;;;5.30;;
58366;SDS011;57745;42.524;12.052;2023-02-22T16:57:26;8.50;;;4.70;;
58366;SDS011;57745;42.524;12.052;2023-02-22T16:59:56;28.27;;;23.67;;
58366;SDS011;57745;42.524;12.052;2023-02-22T17:02:21;17.73;;;13.02;;
58366;SDS011;57745;42.524;12.052;2023-02-22T17:04:47;11.20;;;8.13;;
58366;SDS011;57745;42.524;12.052;2023-02-22T17:07:20;15.98;;;8.48;;
58366;SDS011;57745;42.524;12.052;2023-02-22T17:09:56;16.63;;;11.75;;
58366;SDS011;57745;42.524;12.052;2023-02-22T17:12:22;13.23;;;11.90;;
58366;SDS011;57745;42.524;12.052;2023-02-22T17:14:49;15.32;;;13.63;;
58366;SDS011;57745;42.524;12.052;2023-02-22T17:17:15;22.35;;;20.00;;
58366;SDS011;57745;42.524;12.052;2023-02-22T17:19:41;22.80;;;20.60;;
58366;SDS011;57745;42.524;12.052;2023-02-22T17:22:07;27.85;;;25.38;;
58366;SDS011;57745;42.524;12.052;2023-02-22T17:24:40;34.53;;;31.50;;
58366;SDS011;57745;42.524;12.052;2023-02-22T17:27:06;31.83;;;28.75;;
58366;SDS011;57745;42.524;12.052;2023-02-22T17:29:31;28.55;;;26.05;;
58366;SDS011;57745;42.524;12.052;2023-02-22T17:31:57;36.33;;;33.13;;
58366;SDS011;57745;42.524;12.052;2023-02-22T17:34:23;36.97;;;33.53;;
58366;SDS011;57745;42.524;12.052;2023-02-22T17:36:48;25.70;;;23.40;;
58366;SDS011;57745;42.524;12.052;2023-02-22T17:39:14;28.15;;;25.30;;
58366;SDS011;57745;42.524;12.052;2023-02-22T17:41:39;23.98;;;21.50;;
58366;SDS011;57745;42.524;12.052;2023-02-22T17:44:05;14.75;;;13.25;;
58366;SDS011;57745;42.524;12.052;2023-02-22T17:46:30;29.50;;;23.63;;
58366;SDS011;57745;42.524;12.052;2023-02-22T17:48:55;18.60;;;13.85;;
58366;SDS011;57745;42.524;12.052;2023-02-22T17:51:22;14.15;;;10.70;;
58366;SDS011;57745;42.524;12.052;2023-02-22T17:53:49;23.52;;;14.25;;
58366;SDS011;57745;42.524;12.052;2023-02-22T17:56:15;43.47;;;27.85;;
58366;SDS011;57745;42.524;12.052;2023-02-22T17:58:49;60.83;;;43.45;;